Time;durP1;ratioP1;P1;durP2;ratioP2;P2;SDS_P1;SDS_P2;PMS_P1;PMS_P2;Temp;Humidity;BMP_temperature;BMP_pressure;BME280_temperature;BME280_humidity;BME280_pressure;Samples;Min_cycle;Max_cycle;Signal;HPM_P1;HPM_P2
2022/03/29 00:01:00;;;;;;;15.00;8.70;;;;;;;5.54;91.13;100908.25;105358;1272;75727;-74
2022/03/29 00:03:27;;;;;;;21.40;9.80;;;;;;;5.51;91.44;100902.67;105231;1274;71063;-74
2022/03/29 00:05:55;;;;;;;19.80;10.40;;;;;;;5.49;91.72;100896.19;105151;1274;73282;-72
2022/03/29 00:08:21;;;;;;;18.50;8.60;;;;;;;5.49;91.55;100891.81;105176;1274;61979;-76
2022/03/29 00:10:48;;;;;;;22.90;11.70;;;;;;;5.49;91.63;100890.42;105252;1271;61256;-73
2022/03/29 00:13:15;;;;;;;20.10;10.90;;;;;;;5.49;91.66;100887.16;105198;1271;74913;-73
2022/03/29 00:15:51;;;;;;;19.30;10.40;;;;;;;5.47;91.70;100884.48;105144;1271;72353;-73
2022/03/29 00:18:20;;;;;;;29.50;12.60;;;;;;;5.46;91.94;100878.28;105233;1271;73886;-72
2022/03/29 00:20:47;;;;;;;23.30;11.80;;;;;;;5.45;91.77;100881.34;105345;1271;63892;-73
2022/03/29 00:23:13;;;;;;;22.40;11.80;;;;;;;5.45;92.11;100878.73;105194;1271;61499;-72
2022/03/29 00:25:40;;;;;;;20.80;11.00;;;;;;;5.43;92.13;100874.63;105223;1271;61131;-73
2022/03/29 00:28:07;;;;;;;23.20;11.40;;;;;;;5.43;92.23;100877.33;105272;1274;71337;-73
2022/03/29 00:30:34;;;;;;;25.90;12.00;;;;;;;5.42;92.38;100880.00;105288;1271;74487;-72
2022/03/29 00:33:01;;;;;;;22.60;11.90;;;;;;;5.42;92.42;100874.43;105253;1271;62247;-72
2022/03/29 00:35:27;;;;;;;19.50;9.90;;;;;;;5.42;92.52;100873.00;105280;1271;61373;-72
2022/03/29 00:37:54;;;;;;;21.60;10.80;;;;;;;5.42;92.39;100874.77;105234;1271;75280;-74
2022/03/29 00:40:21;;;;;;;20.40;10.70;;;;;;;5.42;92.78;100872.30;105142;1271;71510;-75
2022/03/29 00:42:57;;;;;;;20.90;8.60;;;;;;;5.42;92.54;100870.02;105158;1271;73949;-74
2022/03/29 00:45:24;;;;;;;24.70;13.00;;;;;;;5.42;92.96;100865.97;105139;1271;61170;-73
2022/03/29 00:47:51;;;;;;;20.80;10.00;;;;;;;5.43;92.77;100865.72;105174;1271;61244;-71
2022/03/29 00:50:18;;;;;;;20.50;9.50;;;;;;;5.43;93.15;100862.76;105160;1270;74992;-71
2022/03/29 00:52:45;;;;;;;18.20;10.20;;;;;;;5.43;93.13;100858.57;105138;1271;71358;-72
2022/03/29 00:55:13;;;;;;;22.20;12.80;;;;;;;5.41;93.26;100860.09;105189;1271;72968;-74
2022/03/29 00:57:41;;;;;;;28.20;11.60;;;;;;;5.39;92.81;100857.71;105303;1271;62438;-73
2022/03/29 01:00:08;;;;;;;26.50;13.10;;;;;;;5.35;93.11;100859.46;105113;1274;61601;-76
2022/03/29 01:02:35;;;;;;;19.40;7.90;;;;;;;5.33;93.10;100855.08;105201;1271;76020;-74
2022/03/29 01:05:02;;;;;;;22.30;12.40;;;;;;;5.29;93.57;100853.27;105166;1271;72569;-74
2022/03/29 01:07:29;;;;;;;23.40;11.50;;;;;;;5.27;93.22;100850.79;105197;1271;74020;-72
2022/03/29 01:10:01;;;;;;;22.20;11.80;;;;;;;5.26;93.63;100846.33;105276;1271;61528;-71
2022/03/29 01:12:31;;;;;;;26.50;13.70;;;;;;;5.26;93.35;100840.42;105187;1271;61627;-71
2022/03/29 01:14:59;;;;;;;21.40;10.10;;;;;;;5.24;93.42;100836.91;105236;1271;75045;-72
2022/03/29 01:17:42;;;;;;;24.20;11.10;;;;;;;5.24;93.69;100833.88;105210;1271;72371;-72
2022/03/29 01:20:28;;;;;;;18.80;9.80;;;;;;;5.24;93.40;100833.03;105155;1271;74009;-72
2022/03/29 01:22:59;;;;;;;24.20;12.00;;;;;;;5.23;93.53;100832.92;105358;1274;61333;-72
2022/03/29 01:25:38;;;;;;;26.80;11.90;;;;;;;5.23;93.56;100833.67;105435;1271;61157;-72
2022/03/29 01:28:06;;;;;;;18.60;10.20;;;;;;;5.23;93.54;100833.89;105237;1274;74195;-71
2022/03/29 01:30:34;;;;;;;22.40;10.60;;;;;;;5.23;93.20;100830.88;105430;1271;72734;-73
2022/03/29 01:33:06;;;;;;;22.20;11.40;;;;;;;5.23;93.36;100833.86;105482;1274;74075;-73
2022/03/29 01:35:33;;;;;;;19.20;8.40;;;;;;;5.22;93.40;100832.91;105212;1271;62229;-75
2022/03/29 01:38:00;;;;;;;21.60;10.80;;;;;;;5.20;93.50;100830.20;105269;1274;61240;-72
2022/03/29 01:40:27;;;;;;;25.30;12.30;;;;;;;5.20;93.57;100829.52;105259;1271;75796;-73
2022/03/29 01:42:57;;;;;;;26.80;13.10;;;;;;;5.18;93.82;100825.16;105238;1271;72352;-73
2022/03/29 01:45:27;;;;;;;22.70;11.30;;;;;;;5.17;93.39;100826.16;105247;1271;72996;-71
2022/03/29 01:47:54;;;;;;;17.60;8.60;;;;;;;5.14;93.19;100826.38;105111;1271;61483;-73
2022/03/29 01:50:22;;;;;;;16.30;9.30;;;;;;;5.13;93.47;100830.30;105227;1271;60584;-72
2022/03/29 01:52:52;;;;;;;18.20;9.30;;;;;;;5.12;93.36;100829.52;105104;1272;74560;-72
2022/03/29 01:55:21;;;;;;;21.40;11.50;;;;;;;5.12;93.28;100825.00;105095;1271;71555;-73
2022/03/29 01:57:48;;;;;;;15.40;8.80;;;;;;;5.11;93.27;100820.73;105149;1271;74120;-73
2022/03/29 02:00:31;;;;;;;21.60;12.00;;;;;;;5.10;93.58;100820.09;105278;1272;62435;-74
2022/03/29 02:03:09;;;;;;;19.30;10.50;;;;;;;5.09;93.04;100819.66;105244;1272;61221;-73
2022/03/29 02:05:37;;;;;;;24.40;12.00;;;;;;;5.08;93.27;100820.23;105248;1271;74710;-72
2022/03/29 02:08:04;;;;;;;19.70;9.70;;;;;;;5.09;93.23;100823.02;105137;1271;72629;-73
2022/03/29 02:10:31;;;;;;;21.50;10.10;;;;;;;5.08;93.27;100823.23;105187;1272;74072;-73
2022/03/29 02:12:58;;;;;;;19.40;10.80;;;;;;;5.07;92.93;100823.70;105200;1271;61408;-71
2022/03/29 02:15:26;;;;;;;24.50;13.00;;;;;;;5.07;93.09;100824.08;105028;1274;61244;-74
2022/03/29 02:17:55;;;;;;;18.10;10.00;;;;;;;5.07;93.16;100826.69;105147;1271;76340;-72
2022/03/29 02:20:24;;;;;;;21.80;12.00;;;;;;;5.06;93.04;100825.36;105260;1274;72562;-71
2022/03/29 02:22:53;;;;;;;20.50;10.80;;;;;;;5.05;92.92;100820.02;105187;1272;73002;-74
2022/03/29 02:25:20;;;;;;;17.20;10.40;;;;;;;5.06;92.74;100820.94;105235;1271;63410;-76
2022/03/29 02:27:47;;;;;;;19.10;9.50;;;;;;;5.07;92.73;100814.34;105037;1274;61434;-75
2022/03/29 02:30:16;;;;;;;25.30;13.10;;;;;;;5.08;92.88;100815.38;105100;1271;74915;-73
2022/03/29 02:32:44;;;;;;;17.20;8.50;;;;;;;5.08;92.83;100810.58;105178;1271;72087;-71
2022/03/29 02:35:11;;;;;;;19.30;11.00;;;;;;;5.08;92.64;100807.27;105190;1271;74682;-72
2022/03/29 02:37:38;;;;;;;17.20;9.30;;;;;;;5.09;92.72;100807.73;105140;1271;62618;-72
2022/03/29 02:40:06;;;;;;;18.80;9.80;;;;;;;5.08;92.71;100809.02;105212;1271;61304;-71
2022/03/29 02:42:33;;;;;;;25.40;13.10;;;;;;;5.06;93.12;100807.33;105112;1271;75031;-73
2022/03/29 02:45:01;;;;;;;23.20;11.20;;;;;;;5.03;92.78;100805.60;105054;1274;71526;-73
2022/03/29 02:47:28;;;;;;;18.20;9.50;;;;;;;5.01;92.80;100800.52;105120;1271;74562;-72
2022/03/29 02:49:57;;;;;;;24.90;12.90;;;;;;;5.00;92.70;100796.92;105076;1271;62487;-71
2022/03/29 02:52:24;;;;;;;19.90;11.60;;;;;;;5.00;92.44;100794.17;105163;1271;61723;-72
2022/03/29 02:54:54;;;;;;;28.10;14.10;;;;;;;5.00;92.25;100791.21;105125;1271;75088;-72
2022/03/29 02:57:21;;;;;;;23.70;12.20;;;;;;;5.00;91.71;100788.41;105117;1271;71231;-72
2022/03/29 02:59:48;;;;;;;20.30;11.40;;;;;;;5.00;91.76;100790.29;105024;1271;72907;-71
2022/03/29 03:02:14;;;;;;;20.30;10.60;;;;;;;5.00;91.66;100788.74;105139;1274;62493;-70
2022/03/29 03:04:41;;;;;;;17.00;9.50;;;;;;;5.00;91.69;100787.33;105271;1271;61387;-73
2022/03/29 03:07:11;;;;;;;23.20;11.70;;;;;;;5.01;91.19;100785.70;105452;1271;75955;-74
2022/03/29 03:09:37;;;;;;;24.70;13.20;;;;;;;5.00;91.23;100788.35;105290;1271;72754;-73
2022/03/29 03:12:04;;;;;;;13.40;8.20;;;;;;;5.00;91.13;100789.08;105279;1271;61282;-71
2022/03/29 03:14:31;;;;;;;24.70;12.70;;;;;;;5.01;91.13;100790.06;105228;1271;61406;-70
2022/03/29 03:16:57;;;;;;;25.50;13.10;;;;;;;5.01;91.14;100794.25;105230;1271;61419;-72
2022/03/29 03:19:36;;;;;;;27.50;13.10;;;;;;;5.00;91.11;100787.35;105320;1271;74723;-71
2022/03/29 03:22:03;;;;;;;20.70;11.00;;;;;;;5.00;91.01;100785.40;105262;1271;71333;-73
2022/03/29 03:24:30;;;;;;;21.70;10.70;;;;;;;5.01;90.92;100788.77;105182;1273;72830;-74
2022/03/29 03:26:57;;;;;;;28.10;13.00;;;;;;;5.01;90.11;100781.27;105240;1274;62328;-71
2022/03/29 03:29:23;;;;;;;22.50;12.60;;;;;;;5.01;90.07;100780.88;105265;1274;62097;-73
2022/03/29 03:31:50;;;;;;;21.90;12.10;;;;;;;5.03;89.89;100777.65;105334;1274;74883;-73
2022/03/29 03:34:20;;;;;;;21.30;10.10;;;;;;;5.03;89.88;100772.56;105387;1271;71329;-73
2022/03/29 03:36:46;;;;;;;27.70;13.30;;;;;;;5.03;89.31;100770.56;105348;1271;74322;-74
2022/03/29 03:39:13;;;;;;;20.80;11.00;;;;;;;5.04;89.36;100769.65;105234;1271;62184;-73
2022/03/29 03:41:40;;;;;;;26.00;13.10;;;;;;;5.04;89.05;100763.98;105497;1274;61415;-74
2022/03/29 03:44:07;;;;;;;24.70;12.60;;;;;;;5.04;88.67;100761.73;105233;1271;73763;-72
2022/03/29 03:46:35;;;;;;;26.50;13.50;;;;;;;5.04;88.78;100758.36;105346;1271;71468;-73
2022/03/29 03:49:11;;;;;;;24.10;12.10;;;;;;;5.05;88.82;100752.85;105152;1271;73998;-74
2022/03/29 03:51:38;;;;;;;28.00;13.30;;;;;;;5.06;89.05;100750.36;105227;1274;61128;-72
2022/03/29 03:54:06;;;;;;;29.70;14.90;;;;;;;5.07;88.90;100748.86;105351;1274;61708;-72
2022/03/29 03:56:33;;;;;;;28.50;15.60;;;;;;;5.07;88.80;100743.90;105330;1271;75093;-71
2022/03/29 03:58:59;;;;;;;26.10;13.90;;;;;;;5.07;88.52;100742.48;105375;1271;61717;-72
2022/03/29 04:01:27;;;;;;;32.60;14.70;;;;;;;5.08;88.45;100740.35;105196;1271;74229;-74
2022/03/29 04:04:04;;;;;;;;;;;;;;;;;;;;;
2022/03/29 04:06:31;;;;;;;33.50;16.40;;;;;;;5.08;87.48;100742.27;105251;1271;61616;-72
2022/03/29 04:08:58;;;;;;;24.80;13.00;;;;;;;5.09;87.41;100741.96;105188;1274;74069;-71
2022/03/29 04:11:26;;;;;;;27.10;12.80;;;;;;;5.10;87.21;100740.86;105167;1271;72463;-73
2022/03/29 04:13:53;;;;;;;33.50;16.10;;;;;;;5.10;86.67;100738.60;105271;1271;73231;-73
2022/03/29 04:16:24;;;;;;;27.40;12.80;;;;;;;5.11;86.58;100737.27;105198;1271;62430;-72
2022/03/29 04:18:51;;;;;;;37.30;17.50;;;;;;;5.11;86.71;100736.71;105292;1271;61300;-75
2022/03/29 04:21:18;;;;;;;39.00;16.60;;;;;;;5.12;86.86;100738.76;105138;1271;74130;-72
2022/03/29 04:23:44;;;;;;;41.80;16.90;;;;;;;5.12;86.79;100733.98;105128;1271;71413;-74
2022/03/29 04:26:11;;;;;;;32.70;16.30;;;;;;;5.13;86.87;100729.24;105119;1271;61362;-69
2022/03/29 04:28:38;;;;;;;42.20;19.40;;;;;;;5.14;87.22;100726.69;105162;1271;61255;-71
2022/03/29 04:31:08;;;;;;;30.90;15.70;;;;;;;5.16;87.27;100724.04;105143;1271;61464;-69
2022/03/29 04:33:36;;;;;;;35.10;14.60;;;;;;;5.18;87.56;100719.79;105166;1271;75989;-70
2022/03/29 04:36:03;;;;;;;39.10;18.20;;;;;;;5.19;87.27;100717.45;105108;1271;71406;-69
2022/03/29 04:38:32;;;;;;;36.90;18.30;;;;;;;5.20;87.25;100713.85;105178;1271;72794;-70
2022/03/29 04:40:59;;;;;;;36.50;17.00;;;;;;;5.21;87.09;100717.27;105199;1271;61328;-69
2022/03/29 04:43:26;;;;;;;35.00;15.20;;;;;;;5.22;86.81;100716.25;105331;1271;61327;-70
2022/03/29 04:45:52;;;;;;;42.60;17.80;;;;;;;5.24;86.72;100711.92;105136;1271;73851;-69
2022/03/29 04:48:19;;;;;;;38.10;16.70;;;;;;;5.24;86.56;100712.38;105148;1272;71354;-69
2022/03/29 04:50:45;;;;;;;39.50;19.00;;;;;;;5.24;86.34;100711.36;105402;1271;72564;-69
2022/03/29 04:53:14;;;;;;;42.40;17.50;;;;;;;5.24;86.16;100709.75;105028;1274;62282;-69
2022/03/29 04:55:41;;;;;;;44.70;19.60;;;;;;;5.23;85.82;100702.11;105244;1272;61186;-69
2022/03/29 04:58:08;;;;;;;40.50;19.50;;;;;;;5.23;86.00;100701.64;105158;1271;75882;-69
2022/03/29 05:00:34;;;;;;;29.90;15.20;;;;;;;5.23;85.94;100698.12;105223;1271;71354;-69
2022/03/29 05:03:01;;;;;;;35.00;17.20;;;;;;;5.22;85.76;100697.66;105290;1271;73339;-69
2022/03/29 05:05:28;;;;;;;43.40;19.70;;;;;;;5.22;85.89;100696.80;105193;1272;62448;-71
2022/03/29 05:07:55;;;;;;;32.10;13.80;;;;;;;5.22;85.81;100691.59;105189;1274;61243;-71
2022/03/29 05:10:22;;;;;;;42.70;19.50;;;;;;;5.21;85.80;100693.06;105173;1271;76325;-70
2022/03/29 05:12:49;;;;;;;37.60;18.90;;;;;;;5.20;85.85;100689.81;105141;1272;71268;-68
2022/03/29 05:15:19;;;;;;;41.40;20.00;;;;;;;5.18;85.99;100688.71;105094;1271;73516;-68
2022/03/29 05:17:49;;;;;;;40.40;18.10;;;;;;;5.18;85.90;100688.92;105093;1271;62602;-72
2022/03/29 05:20:18;;;;;;;33.10;16.90;;;;;;;5.18;86.00;100693.69;105186;1274;61260;-72
2022/03/29 05:22:46;;;;;;;30.80;15.70;;;;;;;5.17;86.04;100688.52;105144;1271;75893;-70
2022/03/29 05:25:16;;;;;;;28.40;13.30;;;;;;;5.18;85.84;100687.54;105124;1271;71110;-69
2022/03/29 05:27:43;;;;;;;37.30;18.40;;;;;;;5.19;86.16;100689.38;105106;1271;74605;-67
2022/03/29 05:30:12;;;;;;;33.40;16.70;;;;;;;5.18;86.33;100687.49;105083;1274;61342;-71
2022/03/29 05:32:39;;;;;;;35.60;17.60;;;;;;;5.20;86.36;100691.95;105262;1274;61237;-71
2022/03/29 05:35:10;;;;;;;34.80;17.50;;;;;;;5.20;86.09;100689.98;105053;1274;75011;-69
2022/03/29 05:37:40;;;;;;;30.70;15.50;;;;;;;5.21;86.18;100693.79;105857;1273;71437;-74
2022/03/29 05:40:09;;;;;;;34.20;17.80;;;;;;;5.21;86.03;100693.77;106148;1271;72929;-71
2022/03/29 05:42:40;;;;;;;36.70;18.30;;;;;;;5.21;85.95;100696.40;107436;1274;61369;-71
2022/03/29 05:45:12;;;;;;;29.50;13.70;;;;;;;5.21;86.28;100693.22;105390;1271;61369;-71
2022/03/29 05:50:26;;;;;;;32.20;16.90;;;;;;;5.23;85.84;100693.08;105258;1273;71182;-68
2022/03/29 05:52:52;;;;;;;36.90;16.50;;;;;;;5.24;86.05;100695.21;105764;1265;145753;-72
2022/03/29 05:55:20;;;;;;;31.70;16.50;;;;;;;5.25;86.25;100692.63;105925;1272;61243;-72
2022/03/29 05:57:49;;;;;;;38.30;17.30;;;;;;;5.28;86.19;100695.18;105566;1271;61185;-75
2022/03/29 06:00:25;;;;;;;35.60;16.70;;;;;;;5.29;86.35;100694.71;105558;1271;76054;-74
2022/03/29 06:02:53;;;;;;;40.80;16.00;;;;;;;5.30;86.37;100697.62;105265;1274;73653;-73
2022/03/29 06:05:29;;;;;;;35.00;16.70;;;;;;;5.31;86.15;100699.16;105651;1271;72816;-74
2022/03/29 06:08:06;;;;;;;;;;;;;;;;;;;;;
2022/03/29 06:10:35;;;;;;;32.40;14.80;;;;;;;5.28;86.36;100699.09;105415;1274;61577;-75
2022/03/29 06:13:02;;;;;;;36.70;17.40;;;;;;;5.26;86.36;100700.31;105506;1271;75912;-76
2022/03/29 06:15:28;;;;;;;28.20;13.40;;;;;;;5.26;86.02;100697.83;105438;1274;72315;-75
2022/03/29 06:17:55;;;;;;;34.30;15.50;;;;;;;5.27;86.22;100699.46;105208;1274;62230;-72
2022/03/29 06:20:22;;;;;;;31.50;15.60;;;;;;;5.29;85.56;100699.67;105320;1274;61273;-71
2022/03/29 06:22:48;;;;;;;31.10;14.50;;;;;;;5.33;85.44;100700.60;105348;1273;61214;-71
2022/03/29 06:25:15;;;;;;;26.30;13.40;;;;;;;5.33;84.75;100704.56;105107;1274;73811;-73
2022/03/29 06:27:42;;;;;;;29.70;15.10;;;;;;;5.34;84.10;100711.17;105229;1273;61208;-72
2022/03/29 06:30:11;;;;;;;27.80;13.30;;;;;;;5.33;83.77;100713.36;105205;1273;71809;-73
2022/03/29 06:32:51;;;;;;;23.30;11.70;;;;;;;5.33;83.78;100715.50;105224;1273;61289;-73
2022/03/29 06:35:21;;;;;;;23.10;12.30;;;;;;;5.30;83.70;100710.31;105227;1273;61209;-71
2022/03/29 06:37:51;;;;;;;26.70;12.00;;;;;;;5.37;83.69;100717.94;105244;1273;76250;-71
2022/03/29 06:40:23;;;;;;;29.70;16.70;;;;;;;5.38;83.81;100713.24;105206;1274;70479;-73
2022/03/29 06:42:52;;;;;;;25.20;13.10;;;;;;;5.41;83.98;100713.82;105239;1274;74300;-72
2022/03/29 06:47:51;;;;;;;28.90;13.80;;;;;;;5.47;84.19;100716.06;105181;1274;61704;-69
2022/03/29 06:50:17;;;;;;;33.40;13.60;;;;;;;5.49;83.67;100715.09;105006;1274;74956;-70
2022/03/29 06:52:45;;;;;;;27.80;12.50;;;;;;;5.51;83.22;100713.61;104957;1274;72351;-68
2022/03/29 06:55:15;;;;;;;30.10;15.30;;;;;;;5.55;82.93;100714.11;104865;1275;73976;-72
2022/03/29 06:57:43;;;;;;;27.30;12.10;;;;;;;5.60;82.33;100717.92;104966;1276;61471;-70
2022/03/29 07:00:10;;;;;;;30.10;13.80;;;;;;;5.60;81.93;100714.54;104809;1276;61242;-72
2022/03/29 07:02:37;;;;;;;28.90;13.10;;;;;;;5.60;82.03;100718.09;104850;1276;75941;-70
2022/03/29 07:05:20;;;;;;;26.80;12.10;;;;;;;5.61;82.25;100715.13;104955;1275;71105;-71
2022/03/29 07:07:46;;;;;;;26.50;12.10;;;;;;;5.64;82.22;100711.73;104895;1274;74116;-70
2022/03/29 07:13:01;;;;;;;27.10;13.10;;;;;;;5.71;82.32;100710.35;104907;1275;61243;-69
2022/03/29 07:15:28;;;;;;;34.70;13.70;;;;;;;5.75;82.32;100716.29;105207;1274;76192;-70
2022/03/29 07:17:56;;;;;;;32.00;14.80;;;;;;;5.73;82.24;100707.77;105006;1275;70454;-70
2022/03/29 07:20:23;;;;;;;32.10;14.80;;;;;;;5.73;82.19;100711.52;104898;1274;73050;-72
2022/03/29 07:22:51;;;;;;;33.60;16.10;;;;;;;5.74;82.13;100709.70;104842;1277;62386;-70
2022/03/29 07:25:19;;;;;;;32.40;14.90;;;;;;;5.74;81.92;100716.08;104941;1274;61270;-68
2022/03/29 07:27:49;;;;;;;32.20;15.80;;;;;;;5.75;82.04;100711.83;104956;1275;76027;-69
2022/03/29 07:30:16;;;;;;;26.30;12.40;;;;;;;5.72;81.88;100704.45;104803;1276;71247;-72
2022/03/29 07:32:50;;;;;;;31.20;12.90;;;;;;;5.73;81.52;100698.77;104883;1275;73004;-69
2022/03/29 07:35:19;;;;;;;37.20;16.30;;;;;;;5.78;81.39;100700.11;105055;1276;63073;-71
2022/03/29 07:37:46;;;;;;;31.50;14.30;;;;;;;5.84;81.30;100694.57;105037;1277;61311;-71
2022/03/29 07:40:17;;;;;;;28.60;12.50;;;;;;;5.91;81.20;100689.34;104767;1277;75943;-71
2022/03/29 07:42:44;;;;;;;28.90;15.70;;;;;;;5.95;80.53;100685.69;104906;1279;71626;-71
2022/03/29 07:45:12;;;;;;;29.90;14.00;;;;;;;6.00;80.41;100685.20;104897;1277;74376;-70
2022/03/29 07:47:41;;;;;;;23.60;13.70;;;;;;;6.02;80.26;100682.92;104851;1278;61252;-70
2022/03/29 07:50:29;;;;;;;25.40;13.00;;;;;;;6.04;80.36;100681.52;104946;1277;61374;-67
2022/03/29 07:53:05;;;;;;;33.60;16.00;;;;;;;6.04;79.95;100677.84;104920;1277;74748;-69
2022/03/29 07:55:36;;;;;;;33.70;17.00;;;;;;;6.03;79.98;100675.16;104890;1277;72771;-72
2022/03/29 07:58:19;;;;;;;27.90;13.10;;;;;;;6.04;79.80;100675.18;104802;1276;72679;-70
2022/03/29 08:00:50;;;;;;;29.60;15.00;;;;;;;6.07;79.39;100680.85;105063;1277;61273;-71
2022/03/29 08:03:20;;;;;;;31.60;15.30;;;;;;;6.08;79.42;100680.44;104909;1276;61282;-70
2022/03/29 08:05:48;;;;;;;29.10;13.60;;;;;;;6.12;79.26;100682.45;104944;1277;75090;-71
2022/03/29 08:08:16;;;;;;;35.60;14.70;;;;;;;6.15;78.41;100680.84;104820;1277;71368;-69
2022/03/29 08:10:47;;;;;;;29.70;16.30;;;;;;;6.22;78.35;100674.89;104935;1277;72145;-68
2022/03/29 08:13:14;;;;;;;34.60;17.00;;;;;;;6.31;78.85;100675.98;104825;1277;61397;-69
2022/03/29 08:15:44;;;;;;;26.00;13.50;;;;;;;6.35;78.40;100684.71;105012;1275;62468;-69
2022/03/29 08:18:11;;;;;;;36.30;15.60;;;;;;;6.32;77.60;100690.23;104997;1276;74991;-69
2022/03/29 08:20:42;;;;;;;31.40;14.70;;;;;;;6.27;77.83;100680.20;105000;1274;72902;-71
2022/03/29 08:23:10;;;;;;;33.30;16.70;;;;;;;6.26;78.09;100677.67;104830;1277;74015;-72
2022/03/29 08:25:39;;;;;;;29.30;14.40;;;;;;;6.28;78.28;100669.96;104839;1277;61346;-67
2022/03/29 08:28:06;;;;;;;26.30;13.30;;;;;;;6.30;78.31;100675.48;105032;1278;61136;-70
2022/03/29 08:30:34;;;;;;;26.70;13.40;;;;;;;6.32;78.42;100672.48;104886;1277;74884;-69
2022/03/29 08:33:02;;;;;;;32.90;15.80;;;;;;;6.39;78.56;100670.95;104874;1277;72311;-70
2022/03/29 08:35:34;;;;;;;27.00;14.60;;;;;;;6.47;78.15;100668.81;105053;1277;74140;-69
2022/03/29 08:38:01;;;;;;;28.50;14.60;;;;;;;6.48;77.31;100669.16;105063;1278;62306;-70
2022/03/29 08:40:48;;;;;;;26.50;14.30;;;;;;;6.50;77.15;100669.54;104855;1277;61256;-69
2022/03/29 08:43:16;;;;;;;25.10;12.20;;;;;;;6.52;76.76;100667.00;104806;1277;75978;-69
2022/03/29 08:45:48;;;;;;;24.70;13.00;;;;;;;6.55;76.42;100669.95;104870;1277;71373;-69
2022/03/29 08:48:15;;;;;;;37.00;14.20;;;;;;;6.61;75.82;100668.00;105010;1278;71806;-67
2022/03/29 08:50:42;;;;;;;35.80;15.50;;;;;;;6.66;75.22;100664.15;104824;1275;61366;-71
2022/03/29 08:53:08;;;;;;;27.00;12.30;;;;;;;6.72;74.64;100657.90;104850;1274;61269;-68
2022/03/29 08:55:35;;;;;;;27.90;14.10;;;;;;;6.80;74.43;100649.60;104878;1277;76155;-71
2022/03/29 08:58:02;;;;;;;19.00;9.70;;;;;;;6.91;74.30;100644.67;104896;1274;72455;-73
2022/03/29 09:00:28;;;;;;;27.70;14.30;;;;;;;7.01;73.45;100641.92;104871;1275;72283;-72
2022/03/29 09:02:55;;;;;;;24.10;12.10;;;;;;;7.14;73.19;100638.27;104811;1277;61479;-71
2022/03/29 09:05:27;;;;;;;40.80;15.10;;;;;;;7.30;72.86;100640.61;104901;1277;61132;-72
2022/03/29 09:08:02;;;;;;;23.90;11.40;;;;;;;7.43;72.58;100639.77;105010;1277;76238;-70
2022/03/29 09:10:44;;;;;;;22.70;12.30;;;;;;;7.60;72.84;100641.55;104983;1276;71458;-71
2022/03/29 09:13:23;;;;;;;27.70;13.80;;;;;;;7.73;71.79;100640.77;104896;1277;72994;-68
2022/03/29 09:15:53;;;;;;;23.00;11.70;;;;;;;7.75;70.75;100643.91;104888;1277;61872;-71
2022/03/29 09:18:21;;;;;;;24.50;13.50;;;;;;;7.73;70.11;100645.68;104822;1277;61261;-72
2022/03/29 09:21:16;;;;;;;23.90;13.90;;;;;;;7.71;70.59;100644.78;104854;1277;74670;-70
2022/03/29 09:24:02;;;;;;;31.50;15.30;;;;;;;7.71;70.71;100642.70;104858;1274;72423;-68
2022/03/29 09:26:30;;;;;;;21.40;12.50;;;;;;;7.71;70.80;100645.15;104969;1277;75834;-71
2022/03/29 09:28:58;;;;;;;34.30;14.10;;;;;;;7.77;70.50;100636.84;104814;1277;61569;-68
2022/03/29 09:31:29;;;;;;;26.90;11.80;;;;;;;7.83;70.14;100639.79;104845;1277;61141;-70
2022/03/29 09:34:20;;;;;;;27.60;13.70;;;;;;;7.84;69.47;100644.60;104828;1277;76358;-68
2022/03/29 09:36:50;;;;;;;31.00;13.20;;;;;;;7.85;69.83;100642.51;104814;1277;71806;-71
2022/03/29 09:39:31;;;;;;;34.50;15.50;;;;;;;7.84;69.87;100640.52;104931;1275;72976;-70
2022/03/29 09:41:59;;;;;;;27.80;15.50;;;;;;;7.80;69.60;100638.62;104773;1276;63270;-68
2022/03/29 09:44:40;;;;;;;27.00;12.70;;;;;;;7.78;69.57;100635.21;105002;1276;61215;-66
2022/03/29 09:47:09;;;;;;;29.70;14.50;;;;;;;7.78;69.81;100632.16;104765;1276;75671;-67
2022/03/29 09:49:49;;;;;;;29.20;15.70;;;;;;;7.82;70.19;100629.67;104917;1276;72451;-70
2022/03/29 09:52:21;;;;;;;33.20;16.50;;;;;;;7.79;69.72;100630.55;104710;1276;72958;-68
2022/03/29 09:55:21;;;;;;;32.20;14.70;;;;;;;7.77;69.95;100634.35;104798;1276;61264;-70
2022/03/29 09:57:51;;;;;;;28.50;13.60;;;;;;;7.80;70.52;100626.14;104850;1276;61285;-69
2022/03/29 10:00:29;;;;;;;28.10;13.10;;;;;;;7.83;70.19;100623.91;105012;1274;74910;-70
2022/03/29 10:02:58;;;;;;;30.20;16.10;;;;;;;7.89;69.81;100624.19;104828;1278;71170;-69
2022/03/29 10:05:26;;;;;;;23.90;12.70;;;;;;;7.91;69.80;100624.53;105339;1275;74056;-67
2022/03/29 10:10:49;;;;;;;29.00;15.70;;;;;;;7.81;69.88;100615.52;104847;1276;61250;-70
2022/03/29 10:13:20;;;;;;;31.10;13.80;;;;;;;7.85;69.70;100615.27;104783;1277;76141;-72
2022/03/29 10:15:47;;;;;;;23.50;12.40;;;;;;;7.99;70.00;100613.27;104847;1276;71496;-69
2022/03/29 10:18:15;;;;;;;35.40;16.40;;;;;;;8.15;68.87;100611.72;104739;1276;73780;-68
2022/03/29 10:20:43;;;;;;;25.00;13.30;;;;;;;8.32;68.36;100610.32;104983;1274;62247;-68
2022/03/29 10:23:18;;;;;;;35.30;15.60;;;;;;;8.43;67.57;100605.70;105021;1276;61499;-69
2022/03/29 10:25:45;;;;;;;27.00;14.50;;;;;;;8.48;67.01;100604.80;104865;1276;75517;-66
2022/03/29 10:28:12;;;;;;;27.90;14.40;;;;;;;8.68;67.24;100598.09;104924;1277;71378;-68
2022/03/29 10:30:49;;;;;;;34.20;15.60;;;;;;;9.02;66.31;100604.33;104978;1276;72990;-69
2022/03/29 10:33:16;;;;;;;29.80;14.90;;;;;;;9.21;64.61;100605.60;104867;1276;61456;-71
2022/03/29 10:35:58;;;;;;;32.60;16.00;;;;;;;9.35;64.61;100602.99;104768;1276;61855;-69
2022/03/29 10:38:58;;;;;;;27.10;13.20;;;;;;;9.45;63.08;100600.89;104879;1276;77842;-69
2022/03/29 10:41:28;;;;;;;22.20;12.30;;;;;;;9.50;62.41;100595.00;104604;1277;71120;-68
2022/03/29 10:44:14;;;;;;;28.30;14.50;;;;;;;9.62;62.86;100588.55;104995;1276;74023;-67
2022/03/29 10:46:50;;;;;;;31.30;14.50;;;;;;;9.64;62.28;100586.88;104892;1276;61339;-69
2022/03/29 10:49:27;;;;;;;36.40;17.20;;;;;;;9.58;62.48;100580.27;104970;1276;61279;-71
2022/03/29 10:52:16;;;;;;;31.80;17.70;;;;;;;9.65;62.46;100573.52;104900;1276;74748;-69
2022/03/29 10:54:43;;;;;;;32.20;16.80;;;;;;;9.83;62.39;100567.63;104757;1276;71427;-66
2022/03/29 10:57:32;;;;;;;29.80;16.00;;;;;;;10.02;61.74;100563.88;104768;1277;73513;-69
2022/03/29 11:00:11;;;;;;;30.50;15.20;;;;;;;10.31;60.91;100563.98;104899;1275;61662;-68
2022/03/29 11:02:58;;;;;;;36.70;18.70;;;;;;;10.45;59.85;100563.10;105161;1276;62334;-71
2022/03/29 11:05:29;;;;;;;37.80;18.30;;;;;;;10.49;59.29;100553.52;104802;1276;74846;-71
2022/03/29 11:07:55;;;;;;;35.90;17.70;;;;;;;10.46;58.74;100557.46;104880;1276;72413;-72
2022/03/29 11:10:37;;;;;;;31.30;15.20;;;;;;;10.45;58.67;100552.50;104892;1276;61352;-70
2022/03/29 11:13:32;;;;;;;27.50;15.60;;;;;;;10.64;59.15;100555.88;104830;1275;61380;-72
2022/03/29 11:16:02;;;;;;;27.70;15.50;;;;;;;10.73;58.14;100553.09;104732;1277;61201;-70
2022/03/29 11:18:31;;;;;;;32.60;15.40;;;;;;;10.68;58.20;100550.02;105029;1276;75083;-69
2022/03/29 11:21:03;;;;;;;27.80;17.10;;;;;;;10.67;57.97;100550.75;104991;1276;61293;-68
2022/03/29 11:23:40;;;;;;;29.10;17.20;;;;;;;10.84;57.36;100544.34;104945;1274;73127;-72
2022/03/29 11:26:11;;;;;;;28.20;17.30;;;;;;;11.23;57.84;100537.34;104934;1276;61405;-72
2022/03/29 11:28:49;;;;;;;28.70;16.60;;;;;;;11.42;55.95;100536.23;105066;1274;61445;-68
2022/03/29 11:31:17;;;;;;;24.10;14.50;;;;;;;11.33;55.08;100529.70;104885;1276;75167;-69
2022/03/29 11:33:49;;;;;;;24.40;15.00;;;;;;;11.33;55.59;100521.79;104515;1276;480151;-72
2022/03/29 11:36:17;;;;;;;28.20;15.10;;;;;;;11.35;54.67;100523.13;105129;1276;73121;-70